sensor_id;sensor_type;location;lat;lon;timestamp;temperature;humidity
19174;DHT22;9719;49.322;8.536;2024-01-30T04:02:03;2.60;99.90
19174;DHT22;9719;49.322;8.536;2024-01-30T04:07:04;2.70;99.90
19174;DHT22;9719;49.322;8.536;2024-01-30T04:12:06;2.70;99.90
19174;DHT22;9719;49.322;8.536;2024-01-30T04:17:09;2.60;99.90
19174;DHT22;9719;49.322;8.536;2024-01-30T04:22:11;2.70;99.90
19174;DHT22;9719;49.322;8.536;2024-01-30T04:27:13;2.60;99.90
19174;DHT22;9719;49.322;8.536;2024-01-30T04:32:16;2.40;99.90
19174;DHT22;9719;49.322;8.536;2024-01-30T04:37:17;2.40;99.90
19174;DHT22;9719;49.322;8.536;2024-01-30T04:42:19;2.30;99.90
19174;DHT22;9719;49.322;8.536;2024-01-30T04:47:22;2.40;99.90
19174;DHT22;9719;49.322;8.536;2024-01-30T04:52:24;2.40;99.90
19174;DHT22;9719;49.322;8.536;2024-01-30T04:57:25;2.40;99.90
19174;DHT22;9719;49.322;8.536;2024-01-30T05:02:28;2.40;99.90
19174;DHT22;9719;49.322;8.536;2024-01-30T05:07:30;2.30;99.90
19174;DHT22;9719;49.322;8.536;2024-01-30T05:12:32;2.50;99.90
19174;DHT22;9719;49.322;8.536;2024-01-30T05:17:35;2.40;99.90
19174;DHT22;9719;49.322;8.536;2024-01-30T05:22:36;2.20;99.90
19174;DHT22;9719;49.322;8.536;2024-01-30T05:27:39;2.40;99.90
19174;DHT22;9719;49.322;8.536;2024-01-30T05:32:42;2.40;99.90
19174;DHT22;9719;49.322;8.536;2024-01-30T05:37:44;2.30;99.90
19174;DHT22;9719;49.322;8.536;2024-01-30T05:42:46;2.50;99.90
19174;DHT22;9719;49.322;8.536;2024-01-30T05:47:49;2.30;99.90
19174;DHT22;9719;49.322;8.536;2024-01-30T05:52:51;2.20;99.90
19174;DHT22;9719;49.322;8.536;2024-01-30T05:57:52;2.50;99.90
19174;DHT22;9719;49.322;8.536;2024-01-30T06:02:55;2.30;99.90
19174;DHT22;9719;49.322;8.536;2024-01-30T06:07:57;2.30;99.90
19174;DHT22;9719;49.322;8.536;2024-01-30T06:12:58;2.20;99.90
19174;DHT22;9719;49.322;8.536;2024-01-30T06:18:02;2.10;99.90
19174;DHT22;9719;49.322;8.536;2024-01-30T06:23:04;2.20;99.90
19174;DHT22;9719;49.322;8.536;2024-01-30T06:28:06;2.10;99.90
19174;DHT22;9719;49.322;8.536;2024-01-30T06:33:11;2.10;99.90
19174;DHT22;9719;49.322;8.536;2024-01-30T06:38:13;2.10;99.90
19174;DHT22;9719;49.322;8.536;2024-01-30T06:43:16;2.10;99.90
19174;DHT22;9719;49.322;8.536;2024-01-30T06:48:19;2.30;99.90
19174;DHT22;9719;49.322;8.536;2024-01-30T06:53:20;2.00;99.90
19174;DHT22;9719;49.322;8.536;2024-01-30T06:58:22;2.00;99.90
19174;DHT22;9719;49.322;8.536;2024-01-30T07:03:25;2.30;99.90
19174;DHT22;9719;49.322;8.536;2024-01-30T07:08:26;2.10;99.90
19174;DHT22;9719;49.322;8.536;2024-01-30T07:13:28;2.20;99.90
19174;DHT22;9719;49.322;8.536;2024-01-30T07:18:31;2.20;99.90
19174;DHT22;9719;49.322;8.536;2024-01-30T07:23:33;2.10;99.90
19174;DHT22;9719;49.322;8.536;2024-01-30T07:28:35;2.20;99.90
19174;DHT22;9719;49.322;8.536;2024-01-30T07:33:38;2.30;99.90
19174;DHT22;9719;49.322;8.536;2024-01-30T07:38:40;2.20;99.90
19174;DHT22;9719;49.322;8.536;2024-01-30T07:43:43;2.20;99.90
19174;DHT22;9719;49.322;8.536;2024-01-30T07:48:46;2.40;99.90
19174;DHT22;9719;49.322;8.536;2024-01-30T07:53:48;2.50;99.90
19174;DHT22;9719;49.322;8.536;2024-01-30T07:58:49;2.60;99.90
19174;DHT22;9719;49.322;8.536;2024-01-30T08:03:52;2.80;99.90
19174;DHT22;9719;49.322;8.536;2024-01-30T08:08:54;2.80;99.90
19174;DHT22;9719;49.322;8.536;2024-01-30T08:13:57;2.90;99.90
19174;DHT22;9719;49.322;8.536;2024-01-30T08:19:00;3.30;99.90
19174;DHT22;9719;49.322;8.536;2024-01-30T08:24:03;3.60;99.90
19174;DHT22;9719;49.322;8.536;2024-01-30T08:29:05;3.80;99.90
19174;DHT22;9719;49.322;8.536;2024-01-30T08:34:08;4.10;99.90
19174;DHT22;9719;49.322;8.536;2024-01-30T08:39:10;4.10;99.90
19174;DHT22;9719;49.322;8.536;2024-01-30T08:44:11;4.30;99.90
19174;DHT22;9719;49.322;8.536;2024-01-30T08:49:16;4.30;99.90
19174;DHT22;9719;49.322;8.536;2024-01-30T08:54:18;4.40;99.90
19174;DHT22;9719;49.322;8.536;2024-01-30T08:59:19;4.50;99.90
19174;DHT22;9719;49.322;8.536;2024-01-30T09:04:22;4.40;99.90
19174;DHT22;9719;49.322;8.536;2024-01-30T09:09:24;4.40;99.90
19174;DHT22;9719;49.322;8.536;2024-01-30T09:14:26;4.50;99.90
19174;DHT22;9719;49.322;8.536;2024-01-30T09:19:29;4.60;99.90
19174;DHT22;9719;49.322;8.536;2024-01-30T09:24:31;4.70;99.90
19174;DHT22;9719;49.322;8.536;2024-01-30T09:29:32;4.90;99.90
19174;DHT22;9719;49.322;8.536;2024-01-30T09:34:36;5.00;99.90
19174;DHT22;9719;49.322;8.536;2024-01-30T09:39:37;5.20;99.90
19174;DHT22;9719;49.322;8.536;2024-01-30T09:44:41;5.30;99.90
19174;DHT22;9719;49.322;8.536;2024-01-30T09:49:46;5.50;99.90
19174;DHT22;9719;49.322;8.536;2024-01-30T09:54:49;5.60;99.90
19174;DHT22;9719;49.322;8.536;2024-01-30T09:59:52;5.80;99.90
19174;DHT22;9719;49.322;8.536;2024-01-30T10:04:55;6.10;99.90
19174;DHT22;9719;49.322;8.536;2024-01-30T10:09:57;6.30;99.90
19174;DHT22;9719;49.322;8.536;2024-01-30T10:14:59;6.60;99.90
19174;DHT22;9719;49.322;8.536;2024-01-30T10:20:04;6.60;99.90
19174;DHT22;9719;49.322;8.536;2024-01-30T10:25:06;6.80;99.90
19174;DHT22;9719;49.322;8.536;2024-01-30T10:30:09;6.90;99.90
19174;DHT22;9719;49.322;8.536;2024-01-30T10:35:12;7.10;99.90
19174;DHT22;9719;49.322;8.536;2024-01-30T10:40:15;7.20;99.90
19174;DHT22;9719;49.322;8.536;2024-01-30T10:45:17;7.40;99.90
19174;DHT22;9719;49.322;8.536;2024-01-30T10:50:21;7.50;99.90
19174;DHT22;9719;49.322;8.536;2024-01-30T10:55:24;7.40;99.90
19174;DHT22;9719;49.322;8.536;2024-01-30T11:00:28;7.60;99.90
19174;DHT22;9719;49.322;8.536;2024-01-30T11:05:34;7.70;99.90
19174;DHT22;9719;49.322;8.536;2024-01-30T11:10:44;7.90;99.90
19174;DHT22;9719;49.322;8.536;2024-01-30T11:15:47;8.30;99.90
19174;DHT22;9719;49.322;8.536;2024-01-30T11:20:50;8.70;99.90
19174;DHT22;9719;49.322;8.536;2024-01-30T11:25:52;9.00;99.90
19174;DHT22;9719;49.322;8.536;2024-01-30T11:31:03;9.70;99.90
19174;DHT22;9719;49.322;8.536;2024-01-30T11:36:06;9.80;99.90
19174;DHT22;9719;49.322;8.536;2024-01-30T11:41:08;9.80;99.90
19174;DHT22;9719;49.322;8.536;2024-01-30T11:46:10;9.80;99.90
19174;DHT22;9719;49.322;8.536;2024-01-30T11:51:14;9.80;99.90
19174;DHT22;9719;49.322;8.536;2024-01-30T11:56:18;9.90;99.90
19174;DHT22;9719;49.322;8.536;2024-01-30T12:01:20;10.00;99.90
19174;DHT22;9719;49.322;8.536;2024-01-30T12:06:23;9.90;99.90
19174;DHT22;9719;49.322;8.536;2024-01-30T12:11:25;10.10;99.90
19174;DHT22;9719;49.322;8.536;2024-01-30T12:16:27;10.10;99.90
19174;DHT22;9719;49.322;8.536;2024-01-30T12:21:30;10.30;99.90
19174;DHT22;9719;49.322;8.536;2024-01-30T12:26:32;10.60;99.90
19174;DHT22;9719;49.322;8.536;2024-01-30T12:31:33;10.90;99.90
19174;DHT22;9719;49.322;8.536;2024-01-30T12:36:36;11.10;99.90
19174;DHT22;9719;49.322;8.536;2024-01-30T12:41:38;11.20;99.90
19174;DHT22;9719;49.322;8.536;2024-01-30T12:46:40;11.30;99.90
19174;DHT22;9719;49.322;8.536;2024-01-30T12:51:43;11.30;99.90
19174;DHT22;9719;49.322;8.536;2024-01-30T12:56:44;11.40;99.90
19174;DHT22;9719;49.322;8.536;2024-01-30T13:01:46;11.50;99.90
19174;DHT22;9719;49.322;8.536;2024-01-30T13:06:49;11.50;99.90
19174;DHT22;9719;49.322;8.536;2024-01-30T13:11:51;11.50;99.90
19174;DHT22;9719;49.322;8.536;2024-01-30T13:16:53;11.60;99.90
19174;DHT22;9719;49.322;8.536;2024-01-30T13:21:56;11.70;99.90
19174;DHT22;9719;49.322;8.536;2024-01-30T13:26:57;11.80;99.90
19174;DHT22;9719;49.322;8.536;2024-01-30T13:31:59;11.80;99.90
19174;DHT22;9719;49.322;8.536;2024-01-30T13:37:02;11.60;99.90
19174;DHT22;9719;49.322;8.536;2024-01-30T13:42:04;11.80;99.90
19174;DHT22;9719;49.322;8.536;2024-01-30T13:47:06;11.70;99.90
19174;DHT22;9719;49.322;8.536;2024-01-30T13:52:09;11.60;99.90
19174;DHT22;9719;49.322;8.536;2024-01-30T13:57:10;11.60;99.90
19174;DHT22;9719;49.322;8.536;2024-01-30T14:02:12;11.70;99.90
19174;DHT22;9719;49.322;8.536;2024-01-30T14:07:15;11.70;99.90
19174;DHT22;9719;49.322;8.536;2024-01-30T14:12:18;11.60;99.90
19174;DHT22;9719;49.322;8.536;2024-01-30T14:17:20;11.70;99.90
19174;DHT22;9719;49.322;8.536;2024-01-30T14:22:23;11.60;99.90
19174;DHT22;9719;49.322;8.536;2024-01-30T14:27:24;11.60;99.90
19174;DHT22;9719;49.322;8.536;2024-01-30T14:32:26;11.60;99.90
19174;DHT22;9719;49.322;8.536;2024-01-30T14:37:29;11.50;99.90
19174;DHT22;9719;49.322;8.536;2024-01-30T14:42:31;11.40;99.90
19174;DHT22;9719;49.322;8.536;2024-01-30T14:47:33;11.30;99.90
19174;DHT22;9719;49.322;8.536;2024-01-30T14:52:37;11.30;99.90
19174;DHT22;9719;49.322;8.536;2024-01-30T14:57:40;11.20;99.90
19174;DHT22;9719;49.322;8.536;2024-01-30T15:02:43;11.10;99.90
19174;DHT22;9719;49.322;8.536;2024-01-30T15:07:46;11.10;99.90
19174;DHT22;9719;49.322;8.536;2024-01-30T15:12:47;11.10;99.90
19174;DHT22;9719;49.322;8.536;2024-01-30T15:17:49;10.90;99.90
19174;DHT22;9719;49.322;8.536;2024-01-30T15:22:52;10.90;99.90
19174;DHT22;9719;49.322;8.536;2024-01-30T15:27:54;10.80;99.90
19174;DHT22;9719;49.322;8.536;2024-01-30T15:32:55;10.80;99.90
19174;DHT22;9719;49.322;8.536;2024-01-30T15:37:58;10.60;99.90
19174;DHT22;9719;49.322;8.536;2024-01-30T15:43:00;10.50;99.90
19174;DHT22;9719;49.322;8.536;2024-01-30T15:48:02;10.50;99.90
19174;DHT22;9719;49.322;8.536;2024-01-30T15:53:05;10.50;99.90
19174;DHT22;9719;49.322;8.536;2024-01-30T15:58:07;10.40;99.90
19174;DHT22;9719;49.322;8.536;2024-01-30T16:03:08;10.50;99.90
19174;DHT22;9719;49.322;8.536;2024-01-30T16:08:11;10.30;99.90
19174;DHT22;9719;49.322;8.536;2024-01-30T16:13:13;10.30;99.90
19174;DHT22;9719;49.322;8.536;2024-01-30T16:18:15;10.10;99.90
19174;DHT22;9719;49.322;8.536;2024-01-30T16:23:18;10.10;99.90
19174;DHT22;9719;49.322;8.536;2024-01-30T16:28:23;10.10;99.90
19174;DHT22;9719;49.322;8.536;2024-01-30T16:33:25;10.20;99.90
19174;DHT22;9719;49.322;8.536;2024-01-30T16:38:28;10.00;99.90
19174;DHT22;9719;49.322;8.536;2024-01-30T16:43:30;10.10;99.90
19174;DHT22;9719;49.322;8.536;2024-01-30T16:48:31;10.00;99.90
19174;DHT22;9719;49.322;8.536;2024-01-30T16:53:34;10.00;99.90
19174;DHT22;9719;49.322;8.536;2024-01-30T16:58:36;9.80;99.90
19174;DHT22;9719;49.322;8.536;2024-01-30T17:03:38;9.90;99.90
19174;DHT22;9719;49.322;8.536;2024-01-30T17:08:43;9.90;99.90
19174;DHT22;9719;49.322;8.536;2024-01-30T17:13:45;9.90;99.90
19174;DHT22;9719;49.322;8.536;2024-01-30T17:18:46;9.90;99.90
19174;DHT22;9719;49.322;8.536;2024-01-30T17:23:49;9.90;99.90
19174;DHT22;9719;49.322;8.536;2024-01-30T17:28:51;9.90;99.90
19174;DHT22;9719;49.322;8.536;2024-01-30T17:33:53;9.90;99.90
19174;DHT22;9719;49.322;8.536;2024-01-30T17:38:56;9.90;99.90
19174;DHT22;9719;49.322;8.536;2024-01-30T17:43:58;9.70;99.90
19174;DHT22;9719;49.322;8.536;2024-01-30T17:49:00;9.50;99.90
19174;DHT22;9719;49.322;8.536;2024-01-30T17:54:03;9.40;99.90
19174;DHT22;9719;49.322;8.536;2024-01-30T17:59:05;9.30;99.90
19174;DHT22;9719;49.322;8.536;2024-01-30T18:04:07;9.30;99.90
19174;DHT22;9719;49.322;8.536;2024-01-30T18:09:10;9.10;99.90
19174;DHT22;9719;49.322;8.536;2024-01-30T18:14:12;9.10;99.90
19174;DHT22;9719;49.322;8.536;2024-01-30T18:19:14;9.10;99.90
19174;DHT22;9719;49.322;8.536;2024-01-30T18:24:17;9.10;99.90
19174;DHT22;9719;49.322;8.536;2024-01-30T18:29:22;9.10;99.90
19174;DHT22;9719;49.322;8.536;2024-01-30T18:34:24;9.00;99.90
19174;DHT22;9719;49.322;8.536;2024-01-30T18:39:27;9.00;99.90
19174;DHT22;9719;49.322;8.536;2024-01-30T18:44:29;9.00;99.90
19174;DHT22;9719;49.322;8.536;2024-01-30T18:49:30;9.00;99.90
19174;DHT22;9719;49.322;8.536;2024-01-30T18:54:33;8.80;99.90
19174;DHT22;9719;49.322;8.536;2024-01-30T18:59:35;8.80;99.90
19174;DHT22;9719;49.322;8.536;2024-01-30T19:04:37;8.70;99.90
19174;DHT22;9719;49.322;8.536;2024-01-30T19:09:40;8.50;99.90
19174;DHT22;9719;49.322;8.536;2024-01-30T19:14:42;8.40;99.90
19174;DHT22;9719;49.322;8.536;2024-01-30T19:19:43;8.40;99.90
19174;DHT22;9719;49.322;8.536;2024-01-30T19:24:46;8.20;99.90
19174;DHT22;9719;49.322;8.536;2024-01-30T19:29:49;8.10;99.90
19174;DHT22;9719;49.322;8.536;2024-01-30T19:34:52;8.00;99.90
19174;DHT22;9719;49.322;8.536;2024-01-30T19:39:55;7.70;99.90
19174;DHT22;9719;49.322;8.536;2024-01-30T19:44:57;7.70;99.90
19174;DHT22;9719;49.322;8.536;2024-01-30T19:49:58;7.50;99.90
19174;DHT22;9719;49.322;8.536;2024-01-30T19:55:01;7.40;99.90
19174;DHT22;9719;49.322;8.536;2024-01-30T20:00:05;7.50;99.90
19174;DHT22;9719;49.322;8.536;2024-01-30T20:05:08;7.50;99.90
19174;DHT22;9719;49.322;8.536;2024-01-30T20:10:13;7.70;99.90
19174;DHT22;9719;49.322;8.536;2024-01-30T20:15:15;7.70;99.90
19174;DHT22;9719;49.322;8.536;2024-01-30T20:20:17;7.60;99.90
19174;DHT22;9719;49.322;8.536;2024-01-30T20:25:20;7.70;99.90
19174;DHT22;9719;49.322;8.536;2024-01-30T20:30:22;7.80;99.90
19174;DHT22;9719;49.322;8.536;2024-01-30T20:35:24;7.90;99.90
19174;DHT22;9719;49.322;8.536;2024-01-30T20:40:27;7.90;99.90
19174;DHT22;9719;49.322;8.536;2024-01-30T20:45:29;7.90;99.90
19174;DHT22;9719;49.322;8.536;2024-01-30T20:50:31;8.00;99.90
19174;DHT22;9719;49.322;8.536;2024-01-30T20:55:34;8.10;99.90
19174;DHT22;9719;49.322;8.536;2024-01-30T21:00:36;8.10;99.90
19174;DHT22;9719;49.322;8.536;2024-01-30T21:05:37;8.20;99.90
19174;DHT22;9719;49.322;8.536;2024-01-30T21:10:41;8.30;99.90
19174;DHT22;9719;49.322;8.536;2024-01-30T21:15:43;8.20;99.90
19174;DHT22;9719;49.322;8.536;2024-01-30T21:20:45;8.20;99.90
19174;DHT22;9719;49.322;8.536;2024-01-30T21:25:48;8.20;99.90
19174;DHT22;9719;49.322;8.536;2024-01-30T21:30:49;8.30;99.90
19174;DHT22;9719;49.322;8.536;2024-01-30T21:35:52;8.40;99.90
19174;DHT22;9719;49.322;8.536;2024-01-30T21:40:55;8.30;99.90
19174;DHT22;9719;49.322;8.536;2024-01-30T21:45:56;8.30;99.90
19174;DHT22;9719;49.322;8.536;2024-01-30T21:50:58;8.20;99.90
19174;DHT22;9719;49.322;8.536;2024-01-30T21:56:01;8.20;99.90
19174;DHT22;9719;49.322;8.536;2024-01-30T22:01:03;8.30;99.90
19174;DHT22;9719;49.322;8.536;2024-01-30T22:06:05;8.30;99.90
19174;DHT22;9719;49.322;8.536;2024-01-30T22:11:08;8.20;99.90
19174;DHT22;9719;49.322;8.536;2024-01-30T22:16:10;8.30;99.90
19174;DHT22;9719;49.322;8.536;2024-01-30T22:21:12;8.20;99.90
19174;DHT22;9719;49.322;8.536;2024-01-30T22:26:17;8.20;99.90
19174;DHT22;9719;49.322;8.536;2024-01-30T22:31:19;8.40;99.90
19174;DHT22;9719;49.322;8.536;2024-01-30T22:36:20;8.40;99.90
19174;DHT22;9719;49.322;8.536;2024-01-30T22:41:23;8.30;99.90
19174;DHT22;9719;49.322;8.536;2024-01-30T22:46:25;8.40;99.90
19174;DHT22;9719;49.322;8.536;2024-01-30T22:51:27;8.50;99.90
19174;DHT22;9719;49.322;8.536;2024-01-30T22:56:30;8.40;99.90
19174;DHT22;9719;49.322;8.536;2024-01-30T23:01:32;8.50;99.90
19174;DHT22;9719;49.322;8.536;2024-01-30T23:06:33;8.60;99.90
19174;DHT22;9719;49.322;8.536;2024-01-30T23:11:36;8.60;99.90
19174;DHT22;9719;49.322;8.536;2024-01-30T23:16:38;8.50;99.90
19174;DHT22;9719;49.322;8.536;2024-01-30T23:21:40;8.60;99.90
19174;DHT22;9719;49.322;8.536;2024-01-30T23:26:43;8.50;99.90
19174;DHT22;9719;49.322;8.536;2024-01-30T23:31:45;8.60;99.90
19174;DHT22;9719;49.322;8.536;2024-01-30T23:36:47;8.70;99.90
19174;DHT22;9719;49.322;8.536;2024-01-30T23:41:50;8.70;99.90
19174;DHT22;9719;49.322;8.536;2024-01-30T23:46:52;8.70;99.90
19174;DHT22;9719;49.322;8.536;2024-01-30T23:51:53;8.60;99.90
19174;DHT22;9719;49.322;8.536;2024-01-30T23:56:57;8.60;99.90
